sensor_id;sensor_type;location;lat;lon;timestamp;pressure;altitude;pressure_sealevel;temperature;humidity
63090;BME280;49174;43.198;27.824;2022-10-16T00:01:48;102349.38;;;12.52;72.57
63090;BME280;49174;43.198;27.824;2022-10-16T00:04:13;102353.09;;;12.51;72.43
63090;BME280;49174;43.198;27.824;2022-10-16T00:06:39;102358.53;;;12.43;72.17
63090;BME280;49174;43.198;27.824;2022-10-16T00:09:06;102354.78;;;12.44;73.53
63090;BME280;49174;43.198;27.824;2022-10-16T00:11:34;102358.69;;;12.34;72.75
63090;BME280;49174;43.198;27.824;2022-10-16T00:14:06;102363.22;;;12.17;74.63
63090;BME280;49174;43.198;27.824;2022-10-16T00:16:33;102366.97;;;12.16;74.04
63090;BME280;49174;43.198;27.824;2022-10-16T00:18:59;102370.84;;;12.13;75.40
63090;BME280;49174;43.198;27.824;2022-10-16T00:21:27;102371.00;;;12.12;75.42
63090;BME280;49174;43.198;27.824;2022-10-16T00:23:55;102366.63;;;12.11;75.68
63090;BME280;49174;43.198;27.824;2022-10-16T00:26:21;102367.97;;;12.06;74.75
63090;BME280;49174;43.198;27.824;2022-10-16T00:28:49;102375.06;;;11.99;74.72
63090;BME280;49174;43.198;27.824;2022-10-16T00:31:16;102376.72;;;12.00;74.99
63090;BME280;49174;43.198;27.824;2022-10-16T00:33:42;102369.66;;;11.99;75.70
63090;BME280;49174;43.198;27.824;2022-10-16T00:36:11;102371.00;;;11.95;74.87
63090;BME280;49174;43.198;27.824;2022-10-16T00:38:37;102370.47;;;11.92;75.90
63090;BME280;49174;43.198;27.824;2022-10-16T00:41:04;102373.50;;;11.89;75.97
63090;BME280;49174;43.198;27.824;2022-10-16T00:46:20;102368.22;;;11.79;75.27
63090;BME280;49174;43.198;27.824;2022-10-16T00:49:10;102371.25;;;11.76;74.58
63090;BME280;49174;43.198;27.824;2022-10-16T00:51:39;102359.25;;;11.70;74.49
63090;BME280;49174;43.198;27.824;2022-10-16T00:54:15;102366.16;;;11.65;75.33
63090;BME280;49174;43.198;27.824;2022-10-16T00:56:42;102368.66;;;11.58;75.04
63090;BME280;49174;43.198;27.824;2022-10-16T00:59:38;102377.94;;;11.55;76.35
63090;BME280;49174;43.198;27.824;2022-10-16T01:02:07;102379.28;;;11.51;75.06
63090;BME280;49174;43.198;27.824;2022-10-16T01:04:39;102382.47;;;11.47;75.54
63090;BME280;49174;43.198;27.824;2022-10-16T01:09:47;102382.63;;;11.37;75.66
63090;BME280;49174;43.198;27.824;2022-10-16T01:12:41;102383.94;;;11.33;76.11
63090;BME280;49174;43.198;27.824;2022-10-16T01:15:28;102389.28;;;11.25;76.24
63090;BME280;49174;43.198;27.824;2022-10-16T01:18:13;102395.03;;;11.22;75.49
63090;BME280;49174;43.198;27.824;2022-10-16T01:20:47;102396.31;;;11.09;76.31
63090;BME280;49174;43.198;27.824;2022-10-16T01:28:55;102403.66;;;10.99;76.31
63090;BME280;49174;43.198;27.824;2022-10-16T01:31:25;102406.00;;;10.94;76.73
63090;BME280;49174;43.198;27.824;2022-10-16T01:34:15;102409.34;;;10.88;76.57
63090;BME280;49174;43.198;27.824;2022-10-16T01:36:47;102414.03;;;10.86;76.73
63090;BME280;49174;43.198;27.824;2022-10-16T01:39:15;102410.66;;;10.84;77.58
63090;BME280;49174;43.198;27.824;2022-10-16T01:41:48;102408.13;;;10.82;76.64
63090;BME280;49174;43.198;27.824;2022-10-16T01:44:22;102411.13;;;10.79;77.32
63090;BME280;49174;43.198;27.824;2022-10-16T01:46:52;102414.28;;;10.74;76.46
63090;BME280;49174;43.198;27.824;2022-10-16T01:49:21;102419.63;;;10.66;76.96
63090;BME280;49174;43.198;27.824;2022-10-16T01:51:51;102415.38;;;10.64;77.71
63090;BME280;49174;43.198;27.824;2022-10-16T01:54:20;102410.47;;;10.59;77.19
63090;BME280;49174;43.198;27.824;2022-10-16T01:56:48;102414.47;;;10.55;77.85
63090;BME280;49174;43.198;27.824;2022-10-16T01:59:18;102410.41;;;10.51;77.65
63090;BME280;49174;43.198;27.824;2022-10-16T02:01:51;102409.88;;;10.47;77.21
63090;BME280;49174;43.198;27.824;2022-10-16T02:04:23;102402.94;;;10.45;77.90
63090;BME280;49174;43.198;27.824;2022-10-16T02:06:49;102408.63;;;10.42;78.21
63090;BME280;49174;43.198;27.824;2022-10-16T02:09:15;102413.34;;;10.40;77.16
63090;BME280;49174;43.198;27.824;2022-10-16T02:11:43;102413.25;;;10.32;77.81
63090;BME280;49174;43.198;27.824;2022-10-16T02:14:09;102420.66;;;10.29;77.93
63090;BME280;49174;43.198;27.824;2022-10-16T02:16:43;102431.44;;;10.29;77.91
63090;BME280;49174;43.198;27.824;2022-10-16T02:19:09;102421.66;;;10.28;79.01
63090;BME280;49174;43.198;27.824;2022-10-16T02:21:55;102421.66;;;10.28;78.60
63090;BME280;49174;43.198;27.824;2022-10-16T02:24:46;102413.56;;;10.28;78.81
63090;BME280;49174;43.198;27.824;2022-10-16T02:27:41;102430.03;;;10.25;78.38
63090;BME280;49174;43.198;27.824;2022-10-16T02:30:14;102434.72;;;10.23;78.64
63090;BME280;49174;43.198;27.824;2022-10-16T02:32:46;102438.59;;;10.21;78.86
63090;BME280;49174;43.198;27.824;2022-10-16T02:35:15;102434.78;;;10.14;78.92
63090;BME280;49174;43.198;27.824;2022-10-16T02:37:42;102438.63;;;10.11;79.52
63090;BME280;49174;43.198;27.824;2022-10-16T02:40:08;102444.03;;;10.11;78.85
63090;BME280;49174;43.198;27.824;2022-10-16T02:42:37;102448.03;;;10.07;79.62
63090;BME280;49174;43.198;27.824;2022-10-16T02:45:04;102445.03;;;10.10;79.61
63090;BME280;49174;43.198;27.824;2022-10-16T02:47:29;102447.34;;;10.05;79.39
63090;BME280;49174;43.198;27.824;2022-10-16T02:49:55;102452.72;;;10.05;79.66
63090;BME280;49174;43.198;27.824;2022-10-16T02:52:21;102446.09;;;9.99;79.95
63090;BME280;49174;43.198;27.824;2022-10-16T02:54:46;102445.97;;;10.01;79.94
63090;BME280;49174;43.198;27.824;2022-10-16T02:57:12;102447.50;;;10.03;80.69
63090;BME280;49174;43.198;27.824;2022-10-16T02:59:37;102442.03;;;9.95;81.44
63090;BME280;49174;43.198;27.824;2022-10-16T03:02:03;102449.38;;;10.03;80.60
63090;BME280;49174;43.198;27.824;2022-10-16T03:04:29;102443.50;;;10.07;80.92
63090;BME280;49174;43.198;27.824;2022-10-16T03:06:54;102435.25;;;10.09;80.49
63090;BME280;49174;43.198;27.824;2022-10-16T03:09:20;102433.72;;;10.06;80.47
63090;BME280;49174;43.198;27.824;2022-10-16T03:11:45;102440.66;;;10.09;79.39
63090;BME280;49174;43.198;27.824;2022-10-16T03:14:11;102446.44;;;10.14;79.23
63090;BME280;49174;43.198;27.824;2022-10-16T03:16:36;102454.91;;;10.19;80.20
63090;BME280;49174;43.198;27.824;2022-10-16T03:19:02;102452.47;;;10.26;78.71
63090;BME280;49174;43.198;27.824;2022-10-16T03:21:27;102450.03;;;10.33;78.52
63090;BME280;49174;43.198;27.824;2022-10-16T03:23:53;102450.09;;;10.41;76.47
63090;BME280;49174;43.198;27.824;2022-10-16T03:26:18;102455.59;;;10.49;76.64
63090;BME280;49174;43.198;27.824;2022-10-16T03:28:44;102443.50;;;10.53;77.05
63090;BME280;49174;43.198;27.824;2022-10-16T03:31:09;102442.78;;;10.51;76.18
63090;BME280;49174;43.198;27.824;2022-10-16T03:33:35;102450.03;;;10.50;76.69
63090;BME280;49174;43.198;27.824;2022-10-16T03:36:00;102450.88;;;10.51;75.82
63090;BME280;49174;43.198;27.824;2022-10-16T03:38:26;102451.19;;;10.48;76.30
63090;BME280;49174;43.198;27.824;2022-10-16T03:40:51;102456.97;;;10.53;74.42
63090;BME280;49174;43.198;27.824;2022-10-16T03:43:17;102457.66;;;10.55;73.82
63090;BME280;49174;43.198;27.824;2022-10-16T03:45:43;102460.53;;;10.54;73.75
63090;BME280;49174;43.198;27.824;2022-10-16T03:48:08;102465.63;;;10.57;73.83
63090;BME280;49174;43.198;27.824;2022-10-16T03:50:34;102465.28;;;10.60;74.21
63090;BME280;49174;43.198;27.824;2022-10-16T03:52:59;102458.34;;;10.57;74.24
63090;BME280;49174;43.198;27.824;2022-10-16T03:55:25;102467.16;;;10.59;75.08
63090;BME280;49174;43.198;27.824;2022-10-16T03:57:50;102457.34;;;10.58;74.75
63090;BME280;49174;43.198;27.824;2022-10-16T04:00:16;102460.53;;;10.54;74.26
63090;BME280;49174;43.198;27.824;2022-10-16T04:02:42;102468.75;;;10.52;75.44
63090;BME280;49174;43.198;27.824;2022-10-16T04:05:07;102469.28;;;10.56;75.20
63090;BME280;49174;43.198;27.824;2022-10-16T04:07:33;102471.53;;;10.60;75.26
63090;BME280;49174;43.198;27.824;2022-10-16T04:09:58;102464.84;;;10.64;73.41
63090;BME280;49174;43.198;27.824;2022-10-16T04:12:27;102468.22;;;10.66;74.52
63090;BME280;49174;43.198;27.824;2022-10-16T04:14:53;102468.22;;;10.66;74.23
63090;BME280;49174;43.198;27.824;2022-10-16T04:17:18;102472.16;;;10.72;74.31
63090;BME280;49174;43.198;27.824;2022-10-16T04:19:44;102472.84;;;10.74;72.74
63090;BME280;49174;43.198;27.824;2022-10-16T04:22:09;102476.06;;;10.78;72.40
63090;BME280;49174;43.198;27.824;2022-10-16T04:24:35;102479.47;;;10.80;73.11
63090;BME280;49174;43.198;27.824;2022-10-16T04:27:00;102472.91;;;10.82;73.65
63090;BME280;49174;43.198;27.824;2022-10-16T04:29:26;102474.47;;;10.85;73.09
63090;BME280;49174;43.198;27.824;2022-10-16T04:31:52;102474.97;;;10.88;72.77
63090;BME280;49174;43.198;27.824;2022-10-16T04:34:18;102474.00;;;10.89;73.26
63090;BME280;49174;43.198;27.824;2022-10-16T04:36:43;102476.38;;;10.92;73.40
63090;BME280;49174;43.198;27.824;2022-10-16T04:39:09;102478.59;;;10.97;72.81
63090;BME280;49174;43.198;27.824;2022-10-16T04:41:34;102482.13;;;10.98;73.24
63090;BME280;49174;43.198;27.824;2022-10-16T04:44:00;102484.56;;;11.01;72.31
63090;BME280;49174;43.198;27.824;2022-10-16T04:46:25;102494.19;;;11.03;72.51
63090;BME280;49174;43.198;27.824;2022-10-16T04:48:51;102491.50;;;11.03;72.44
63090;BME280;49174;43.198;27.824;2022-10-16T04:51:17;102488.09;;;11.01;72.78
63090;BME280;49174;43.198;27.824;2022-10-16T04:53:44;102489.47;;;11.05;71.78
63090;BME280;49174;43.198;27.824;2022-10-16T04:56:09;102492.88;;;11.07;73.12
63090;BME280;49174;43.198;27.824;2022-10-16T04:58:35;102490.31;;;11.06;71.07
63090;BME280;49174;43.198;27.824;2022-10-16T05:01:00;102481.34;;;11.05;72.53
63090;BME280;49174;43.198;27.824;2022-10-16T05:03:26;102489.13;;;11.08;71.67
63090;BME280;49174;43.198;27.824;2022-10-16T05:05:51;102494.72;;;11.07;72.44
63090;BME280;49174;43.198;27.824;2022-10-16T05:08:17;102499.47;;;11.13;72.37
63090;BME280;49174;43.198;27.824;2022-10-16T05:10:43;102497.31;;;11.16;71.96
63090;BME280;49174;43.198;27.824;2022-10-16T05:13:10;102503.78;;;11.24;70.44
63090;BME280;49174;43.198;27.824;2022-10-16T05:15:36;102502.69;;;11.34;69.78
63090;BME280;49174;43.198;27.824;2022-10-16T05:18:02;102514.41;;;11.43;70.09
63090;BME280;49174;43.198;27.824;2022-10-16T05:20:28;102512.72;;;11.50;69.89
63090;BME280;49174;43.198;27.824;2022-10-16T05:22:53;102517.09;;;11.43;69.38
63090;BME280;49174;43.198;27.824;2022-10-16T05:25:19;102531.31;;;11.45;69.49
63090;BME280;49174;43.198;27.824;2022-10-16T05:27:47;102527.22;;;11.41;67.67
63090;BME280;49174;43.198;27.824;2022-10-16T05:30:14;102528.59;;;11.45;68.29
63090;BME280;49174;43.198;27.824;2022-10-16T05:32:40;102534.06;;;11.53;68.31
63090;BME280;49174;43.198;27.824;2022-10-16T05:35:05;102539.16;;;11.56;69.56
63090;BME280;49174;43.198;27.824;2022-10-16T05:37:31;102541.69;;;11.58;69.31
63090;BME280;49174;43.198;27.824;2022-10-16T05:39:57;102540.88;;;11.66;69.52
63090;BME280;49174;43.198;27.824;2022-10-16T05:42:23;102542.63;;;11.75;70.93
63090;BME280;49174;43.198;27.824;2022-10-16T05:44:48;102543.50;;;11.83;69.92
63090;BME280;49174;43.198;27.824;2022-10-16T05:47:14;102551.19;;;11.88;70.54
63090;BME280;49174;43.198;27.824;2022-10-16T05:49:40;102550.47;;;11.86;68.24
63090;BME280;49174;43.198;27.824;2022-10-16T05:52:05;102552.19;;;11.87;67.27
63090;BME280;49174;43.198;27.824;2022-10-16T05:54:31;102550.53;;;11.94;68.75
63090;BME280;49174;43.198;27.824;2022-10-16T05:56:56;102568.81;;;12.00;67.86
63090;BME280;49174;43.198;27.824;2022-10-16T05:59:21;102562.78;;;12.06;68.62
63090;BME280;49174;43.198;27.824;2022-10-16T06:01:47;102567.84;;;12.10;68.65
63090;BME280;49174;43.198;27.824;2022-10-16T06:04:12;102567.69;;;12.11;67.79
63090;BME280;49174;43.198;27.824;2022-10-16T06:06:38;102569.72;;;12.17;67.52
63090;BME280;49174;43.198;27.824;2022-10-16T06:09:04;102577.56;;;12.20;68.38
63090;BME280;49174;43.198;27.824;2022-10-16T06:11:32;102566.22;;;12.25;67.60
63090;BME280;49174;43.198;27.824;2022-10-16T06:14:00;102579.41;;;12.28;67.57
63090;BME280;49174;43.198;27.824;2022-10-16T06:16:28;102576.72;;;12.28;67.52
63090;BME280;49174;43.198;27.824;2022-10-16T06:18:55;102576.72;;;12.28;67.14
63090;BME280;49174;43.198;27.824;2022-10-16T06:21:26;102576.09;;;12.34;67.87
63090;BME280;49174;43.198;27.824;2022-10-16T06:23:52;102572.03;;;12.38;67.90
63090;BME280;49174;43.198;27.824;2022-10-16T06:26:19;102573.69;;;12.39;67.88
63090;BME280;49174;43.198;27.824;2022-10-16T06:28:45;102586.03;;;12.34;67.61
63090;BME280;49174;43.198;27.824;2022-10-16T06:31:12;102588.59;;;12.35;68.08
63090;BME280;49174;43.198;27.824;2022-10-16T06:33:38;102594.34;;;12.32;68.17
63090;BME280;49174;43.198;27.824;2022-10-16T06:36:09;102589.25;;;12.29;66.84
63090;BME280;49174;43.198;27.824;2022-10-16T06:38:36;102590.78;;;12.32;67.05
63090;BME280;49174;43.198;27.824;2022-10-16T06:41:03;102581.50;;;12.34;66.73
63090;BME280;49174;43.198;27.824;2022-10-16T06:43:30;102590.59;;;12.33;67.05
63090;BME280;49174;43.198;27.824;2022-10-16T06:46:01;102599.94;;;12.39;66.78
63090;BME280;49174;43.198;27.824;2022-10-16T06:48:27;102609.25;;;12.44;67.67
63090;BME280;49174;43.198;27.824;2022-10-16T06:51:05;102607.97;;;12.57;66.83
63090;BME280;49174;43.198;27.824;2022-10-16T06:53:33;102606.78;;;12.67;67.21
63090;BME280;49174;43.198;27.824;2022-10-16T06:56:14;102602.44;;;12.83;67.53
63090;BME280;49174;43.198;27.824;2022-10-16T06:58:40;102609.91;;;12.97;65.48
63090;BME280;49174;43.198;27.824;2022-10-16T07:01:07;102613.13;;;13.09;66.47
63090;BME280;49174;43.198;27.824;2022-10-16T07:03:32;102608.06;;;13.22;65.60
63090;BME280;49174;43.198;27.824;2022-10-16T07:06:02;102601.00;;;13.37;64.51
63090;BME280;49174;43.198;27.824;2022-10-16T07:08:34;102614.22;;;13.49;64.94
63090;BME280;49174;43.198;27.824;2022-10-16T07:11:04;102612.13;;;13.67;64.46
63090;BME280;49174;43.198;27.824;2022-10-16T07:13:34;102609.25;;;13.77;63.52
63090;BME280;49174;43.198;27.824;2022-10-16T07:16:30;102616.81;;;13.98;64.31
63090;BME280;49174;43.198;27.824;2022-10-16T07:18:58;102612.38;;;14.13;63.42
63090;BME280;49174;43.198;27.824;2022-10-16T07:21:24;102614.72;;;14.24;62.45
63090;BME280;49174;43.198;27.824;2022-10-16T07:24:00;102618.25;;;14.33;62.79
63090;BME280;49174;43.198;27.824;2022-10-16T07:26:31;102617.00;;;14.44;63.92
63090;BME280;49174;43.198;27.824;2022-10-16T07:28:58;102613.25;;;14.53;62.71
63090;BME280;49174;43.198;27.824;2022-10-16T07:31:23;102606.75;;;14.62;62.87
63090;BME280;49174;43.198;27.824;2022-10-16T07:33:50;102613.19;;;14.69;61.90
63090;BME280;49174;43.198;27.824;2022-10-16T07:36:17;102598.34;;;14.80;61.24
63090;BME280;49174;43.198;27.824;2022-10-16T07:38:43;102608.59;;;14.93;61.00
63090;BME280;49174;43.198;27.824;2022-10-16T07:41:12;102616.16;;;15.06;59.96
63090;BME280;49174;43.198;27.824;2022-10-16T07:43:38;102609.84;;;15.13;60.27
63090;BME280;49174;43.198;27.824;2022-10-16T07:46:03;102621.28;;;15.24;60.40
63090;BME280;49174;43.198;27.824;2022-10-16T07:48:32;102613.94;;;15.32;59.35
63090;BME280;49174;43.198;27.824;2022-10-16T07:50:59;102610.59;;;15.45;59.51
63090;BME280;49174;43.198;27.824;2022-10-16T07:53:25;102623.56;;;15.58;57.91
63090;BME280;49174;43.198;27.824;2022-10-16T07:55:50;102626.22;;;15.66;58.15
63090;BME280;49174;43.198;27.824;2022-10-16T07:58:16;102629.72;;;15.75;58.37
63090;BME280;49174;43.198;27.824;2022-10-16T08:00:42;102616.03;;;15.83;57.26
63090;BME280;49174;43.198;27.824;2022-10-16T08:03:10;102616.97;;;15.90;57.91
63090;BME280;49174;43.198;27.824;2022-10-16T08:05:36;102613.31;;;15.98;57.00
63090;BME280;49174;43.198;27.824;2022-10-16T08:08:02;102615.50;;;16.02;56.51
63090;BME280;49174;43.198;27.824;2022-10-16T08:10:28;102616.25;;;16.11;56.37
63090;BME280;49174;43.198;27.824;2022-10-16T08:12:54;102617.75;;;16.14;56.51
63090;BME280;49174;43.198;27.824;2022-10-16T08:15:20;102623.94;;;16.22;56.09
63090;BME280;49174;43.198;27.824;2022-10-16T08:17:57;102603.94;;;16.30;56.73
63090;BME280;49174;43.198;27.824;2022-10-16T08:20:23;102614.25;;;16.35;55.69
63090;BME280;49174;43.198;27.824;2022-10-16T08:22:48;102613.84;;;16.38;54.41
63090;BME280;49174;43.198;27.824;2022-10-16T08:25:14;102616.88;;;16.43;55.93
63090;BME280;49174;43.198;27.824;2022-10-16T08:27:39;102612.25;;;16.43;53.55
63090;BME280;49174;43.198;27.824;2022-10-16T08:30:05;102611.50;;;16.49;55.38
63090;BME280;49174;43.198;27.824;2022-10-16T08:32:31;102619.19;;;16.61;53.86
63090;BME280;49174;43.198;27.824;2022-10-16T08:34:57;102609.41;;;16.66;53.31
63090;BME280;49174;43.198;27.824;2022-10-16T08:37:22;102604.41;;;16.70;52.70
63090;BME280;49174;43.198;27.824;2022-10-16T08:39:48;102602.13;;;16.73;53.54
63090;BME280;49174;43.198;27.824;2022-10-16T08:44:58;102606.81;;;16.94;52.69
63090;BME280;49174;43.198;27.824;2022-10-16T08:50:09;102611.81;;;17.12;51.58
63090;BME280;49174;43.198;27.824;2022-10-16T08:52:39;102617.25;;;17.12;51.04
63090;BME280;49174;43.198;27.824;2022-10-16T08:55:06;102621.47;;;17.15;50.57
63090;BME280;49174;43.198;27.824;2022-10-16T08:57:32;102621.34;;;17.23;50.56
63090;BME280;49174;43.198;27.824;2022-10-16T09:00:00;102625.38;;;17.27;51.71
63090;BME280;49174;43.198;27.824;2022-10-16T09:02:39;102620.00;;;17.34;51.43
63090;BME280;49174;43.198;27.824;2022-10-16T09:11:17;102617.69;;;17.59;50.97
63090;BME280;49174;43.198;27.824;2022-10-16T09:13:54;102620.28;;;17.67;51.17
63090;BME280;49174;43.198;27.824;2022-10-16T09:16:36;102613.59;;;17.76;49.10
63090;BME280;49174;43.198;27.824;2022-10-16T09:19:09;102614.13;;;17.86;48.30
63090;BME280;49174;43.198;27.824;2022-10-16T09:21:41;102613.31;;;17.93;49.09
63090;BME280;49174;43.198;27.824;2022-10-16T09:24:14;102613.34;;;17.99;48.43
63090;BME280;49174;43.198;27.824;2022-10-16T09:26:40;102608.13;;;18.04;49.05
63090;BME280;49174;43.198;27.824;2022-10-16T09:29:06;102610.94;;;18.11;47.77
63090;BME280;49174;43.198;27.824;2022-10-16T09:31:31;102599.22;;;18.24;48.50
63090;BME280;49174;43.198;27.824;2022-10-16T09:34:02;102600.13;;;18.38;47.75
63090;BME280;49174;43.198;27.824;2022-10-16T09:36:39;102607.53;;;18.50;46.04
63090;BME280;49174;43.198;27.824;2022-10-16T09:39:09;102610.94;;;18.59;47.12
63090;BME280;49174;43.198;27.824;2022-10-16T09:41:41;102610.97;;;18.72;46.75
63090;BME280;49174;43.198;27.824;2022-10-16T09:44:33;102600.31;;;18.84;45.62
63090;BME280;49174;43.198;27.824;2022-10-16T09:47:10;102596.09;;;18.88;44.80
63090;BME280;49174;43.198;27.824;2022-10-16T09:49:37;102600.75;;;19.01;45.96
63090;BME280;49174;43.198;27.824;2022-10-16T09:52:05;102594.44;;;19.07;44.03
63090;BME280;49174;43.198;27.824;2022-10-16T09:54:31;102596.56;;;19.18;43.84
63090;BME280;49174;43.198;27.824;2022-10-16T09:57:07;102599.09;;;19.27;44.26
63090;BME280;49174;43.198;27.824;2022-10-16T09:59:46;102593.84;;;19.32;44.46
63090;BME280;49174;43.198;27.824;2022-10-16T10:02:14;102593.22;;;19.43;45.56
63090;BME280;49174;43.198;27.824;2022-10-16T10:04:48;102592.78;;;19.59;43.91
63090;BME280;49174;43.198;27.824;2022-10-16T10:07:30;102598.25;;;19.59;42.60
63090;BME280;49174;43.198;27.824;2022-10-16T10:10:01;102598.66;;;19.63;43.44
63090;BME280;49174;43.198;27.824;2022-10-16T10:12:28;102596.59;;;19.72;43.89
63090;BME280;49174;43.198;27.824;2022-10-16T10:15:17;102589.41;;;19.84;42.95
63090;BME280;49174;43.198;27.824;2022-10-16T10:22:46;102584.13;;;19.96;42.73
63090;BME280;49174;43.198;27.824;2022-10-16T10:27:45;102589.53;;;20.16;42.16
63090;BME280;49174;43.198;27.824;2022-10-16T10:30:20;102588.22;;;20.31;41.81
63090;BME280;49174;43.198;27.824;2022-10-16T10:33:04;102582.25;;;20.41;41.10
63090;BME280;49174;43.198;27.824;2022-10-16T10:46:35;102594.66;;;20.57;40.57
63090;BME280;49174;43.198;27.824;2022-10-16T10:54:52;102581.06;;;20.75;42.48
63090;BME280;49174;43.198;27.824;2022-10-16T11:02:40;102577.97;;;21.22;40.44
63090;BME280;49174;43.198;27.824;2022-10-16T11:08:17;102566.81;;;21.17;38.50
63090;BME280;49174;43.198;27.824;2022-10-16T11:10:54;102567.09;;;21.09;39.98
63090;BME280;49174;43.198;27.824;2022-10-16T11:13:28;102564.13;;;20.85;38.64
63090;BME280;49174;43.198;27.824;2022-10-16T11:16:03;102575.28;;;20.84;39.58
63090;BME280;49174;43.198;27.824;2022-10-16T11:18:50;102585.09;;;21.05;40.40
63090;BME280;49174;43.198;27.824;2022-10-16T11:21:21;102579.09;;;21.14;39.95
63090;BME280;49174;43.198;27.824;2022-10-16T11:23:53;102583.78;;;21.39;39.80
63090;BME280;49174;43.198;27.824;2022-10-16T11:26:27;102583.56;;;21.40;38.23
63090;BME280;49174;43.198;27.824;2022-10-16T11:28:55;102572.97;;;21.44;39.41
63090;BME280;49174;43.198;27.824;2022-10-16T11:31:34;102586.56;;;21.32;38.11
63090;BME280;49174;43.198;27.824;2022-10-16T11:34:09;102588.34;;;21.20;37.90
63090;BME280;49174;43.198;27.824;2022-10-16T11:36:49;102582.59;;;20.96;38.62
63090;BME280;49174;43.198;27.824;2022-10-16T11:39:25;102569.69;;;21.04;40.47
63090;BME280;49174;43.198;27.824;2022-10-16T11:42:22;102579.22;;;21.26;38.46
63090;BME280;49174;43.198;27.824;2022-10-16T11:47:45;102565.63;;;21.38;38.35
63090;BME280;49174;43.198;27.824;2022-10-16T11:55:49;102570.78;;;21.53;39.13
63090;BME280;49174;43.198;27.824;2022-10-16T11:58:41;102564.56;;;21.39;38.81
63090;BME280;49174;43.198;27.824;2022-10-16T12:03:44;102577.69;;;21.62;38.34
63090;BME280;49174;43.198;27.824;2022-10-16T12:06:25;102568.03;;;21.53;37.21
63090;BME280;49174;43.198;27.824;2022-10-16T12:08:56;102578.56;;;21.56;38.96
63090;BME280;49174;43.198;27.824;2022-10-16T12:11:32;102578.06;;;21.40;36.91
63090;BME280;49174;43.198;27.824;2022-10-16T12:19:18;102580.47;;;21.55;36.64
63090;BME280;49174;43.198;27.824;2022-10-16T12:21:44;102569.16;;;21.45;37.39
63090;BME280;49174;43.198;27.824;2022-10-16T12:24:38;102577.06;;;21.28;38.62
63090;BME280;49174;43.198;27.824;2022-10-16T12:27:40;102572.28;;;21.24;38.53
63090;BME280;49174;43.198;27.824;2022-10-16T12:30:05;102577.69;;;21.30;37.75
63090;BME280;49174;43.198;27.824;2022-10-16T12:34:58;102586.66;;;21.19;39.87
63090;BME280;49174;43.198;27.824;2022-10-16T12:37:27;102584.84;;;21.38;39.19
63090;BME280;49174;43.198;27.824;2022-10-16T12:39:54;102593.25;;;21.43;37.17
63090;BME280;49174;43.198;27.824;2022-10-16T12:44:53;102599.06;;;20.96;38.92
63090;BME280;49174;43.198;27.824;2022-10-16T12:47:22;102609.69;;;20.86;38.34
63090;BME280;49174;43.198;27.824;2022-10-16T12:49:53;102607.13;;;20.46;38.66
63090;BME280;49174;43.198;27.824;2022-10-16T12:52:36;102603.91;;;20.63;38.50
63090;BME280;49174;43.198;27.824;2022-10-16T12:55:04;102608.91;;;20.72;40.95
63090;BME280;49174;43.198;27.824;2022-10-16T13:00:23;102610.91;;;21.22;38.27
63090;BME280;49174;43.198;27.824;2022-10-16T13:06:05;102609.97;;;21.10;38.05
63090;BME280;49174;43.198;27.824;2022-10-16T13:11:22;102606.84;;;21.31;38.40
63090;BME280;49174;43.198;27.824;2022-10-16T13:17:36;102601.09;;;21.08;39.17
63090;BME280;49174;43.198;27.824;2022-10-16T13:26:01;102610.44;;;21.32;38.57
63090;BME280;49174;43.198;27.824;2022-10-16T13:28:06;102617.22;;;21.29;37.65
63090;BME280;49174;43.198;27.824;2022-10-16T13:30:43;102606.88;;;21.25;38.70
63090;BME280;49174;43.198;27.824;2022-10-16T13:35:35;102598.97;;;21.10;37.42
63090;BME280;49174;43.198;27.824;2022-10-16T13:38:16;102611.00;;;20.77;38.67
63090;BME280;49174;43.198;27.824;2022-10-16T13:40:51;102604.13;;;20.61;38.29
63090;BME280;49174;43.198;27.824;2022-10-16T13:43:20;102613.38;;;20.67;39.11
63090;BME280;49174;43.198;27.824;2022-10-16T13:46:02;102612.59;;;20.60;39.25
63090;BME280;49174;43.198;27.824;2022-10-16T13:48:30;102619.13;;;20.52;39.89
63090;BME280;49174;43.198;27.824;2022-10-16T13:53:26;102620.44;;;20.43;40.44
63090;BME280;49174;43.198;27.824;2022-10-16T13:55:51;102627.72;;;19.97;40.18
63090;BME280;49174;43.198;27.824;2022-10-16T13:58:17;102620.59;;;19.83;40.68
63090;BME280;49174;43.198;27.824;2022-10-16T14:00:57;102624.81;;;19.66;40.36
63090;BME280;49174;43.198;27.824;2022-10-16T14:03:24;102621.22;;;19.38;40.54
63090;BME280;49174;43.198;27.824;2022-10-16T14:06:00;102624.56;;;19.27;41.47
63090;BME280;49174;43.198;27.824;2022-10-16T14:08:28;102620.16;;;19.26;42.41
63090;BME280;49174;43.198;27.824;2022-10-16T14:10:59;102626.44;;;19.13;41.16
63090;BME280;49174;43.198;27.824;2022-10-16T14:13:33;102626.00;;;18.90;41.31
63090;BME280;49174;43.198;27.824;2022-10-16T14:16:05;102635.03;;;18.84;42.91
63090;BME280;49174;43.198;27.824;2022-10-16T14:18:32;102628.84;;;18.68;42.73
63090;BME280;49174;43.198;27.824;2022-10-16T14:21:13;102630.97;;;18.73;43.55
63090;BME280;49174;43.198;27.824;2022-10-16T14:23:41;102630.13;;;18.72;43.79
63090;BME280;49174;43.198;27.824;2022-10-16T14:28:36;102634.00;;;18.43;43.15
63090;BME280;49174;43.198;27.824;2022-10-16T14:31:16;102644.69;;;18.38;43.53
63090;BME280;49174;43.198;27.824;2022-10-16T14:33:47;102656.19;;;18.27;42.57
63090;BME280;49174;43.198;27.824;2022-10-16T14:36:15;102651.50;;;18.14;43.56